Hovedside
METAR-TAF:

METAR-TAF

Lufthavner :

Visby lufthavn

Visby, Gotland, Sverige

breddegrad: 57-40N, lengdegrad: 018-21E, høyde over havet: 51 m

Gjeldene værobservasjon

Denne rapporten ble laget for 44 minutter siden, klokken 09:20 UTC
Vind 6 kt fra Nordvest
Temperatur 16°C
Luftfuktighet 82%
Trykk 1018 hPa
Sikt 10 km eller mer
ingen skyer under 1500 m og ingen bygeskyer

METAR: ESSV 240920Z 31006KT CAVOK 16/13 Q1018

Tid: 12:04 (10:04 UTC)

Varsel

Denne rapporten ble laget for 1 time og 34 minutter siden, klokken 08:30 UTC
Varsel gyldig fra 24. klokken 09 UTC til 24. klokken 18 UTC
Vind 6 kt fra Nordvest
Sikt 10 km eller mer
ingen skyer under 1500 m og ingen bygeskyer

TAF: ESSV 240830Z 2409/2418 31006KT CAVOK

Værobservasjoner og værvarsel for over 4000 flyplasser (METAR- og TAF-rapporter).

Tilgjengelige stasjoner er representert av de røde og gule prikkene på kartet.

Hold musepekeren over prikken for å se navnet på stasjonen.

Klikk så for å se værobservasjoner og -varsler.

For å forandre kartet kan du klikke på den grønne knappen med svart kryss for å zoome inn, på den grønne knappen med strek for å zoome ut, eller på de grønne pilene for å se tilstøtende kart.


METAR-TAF: